Time;durP1;ratioP1;P1;durP2;ratioP2;P2;SDS_P1;SDS_P2;PMS_P1;PMS_P2;Temp;Humidity;BMP_temperature;BMP_pressure;BME280_temperature;BME280_humidity;BME280_pressure;Samples;Min_cycle;Max_cycle;Signal;HPM_P1;HPM_P2
2022/12/12 00:01:41;;;;;;;17.35;12.38;;;;;;;3.76;100.00;91822.47;5068785;28;20690;-71
2022/12/12 00:04:09;;;;;;;16.08;12.57;;;;;;;3.71;100.00;91835.78;5068878;28;20048;-71
2022/12/12 00:06:36;;;;;;;19.77;13.52;;;;;;;3.68;100.00;91838.72;5068737;28;20488;-71
2022/12/12 00:09:04;;;;;;;22.08;15.57;;;;;;;3.63;100.00;91833.47;5068770;28;20047;-71
2022/12/12 00:11:31;;;;;;;19.98;14.18;;;;;;;3.53;100.00;91846.59;5068615;28;20103;-71
2022/12/12 00:13:58;;;;;;;18.90;13.88;;;;;;;3.47;100.00;91841.34;5068724;28;20052;-71
2022/12/12 00:16:25;;;;;;;19.70;14.32;;;;;;;3.33;100.00;91827.91;5068922;28;20105;-71
2022/12/12 00:18:52;;;;;;;19.00;13.65;;;;;;;3.44;100.00;91843.50;5068716;28;20055;-71
2022/12/12 00:21:23;;;;;;;17.25;12.80;;;;;;;3.42;100.00;91840.38;5068346;28;20185;-71
2022/12/12 00:23:52;;;;;;;19.55;13.50;;;;;;;3.43;100.00;91842.69;5068621;28;20080;-71
2022/12/12 00:26:21;;;;;;;16.23;11.60;;;;;;;3.36;100.00;91839.41;5068704;28;20489;-71
2022/12/12 00:28:48;;;;;;;16.48;11.45;;;;;;;3.33;100.00;91837.25;5068854;28;20068;-71
2022/12/12 00:31:16;;;;;;;14.35;11.32;;;;;;;3.28;100.00;91845.47;5068862;28;20481;-72
2022/12/12 00:33:43;;;;;;;14.43;11.18;;;;;;;3.05;100.00;91807.84;5068583;28;20126;-71
2022/12/12 00:36:11;;;;;;;15.20;11.88;;;;;;;3.19;100.00;91831.44;5067878;28;20048;-71
2022/12/12 00:38:39;;;;;;;14.35;11.27;;;;;;;2.80;100.00;91798.34;5078472;28;20044;-71
2022/12/12 00:41:06;;;;;;;14.13;10.25;;;;;;;3.03;100.00;91822.50;5089029;28;20080;-71
2022/12/12 00:43:33;;;;;;;13.90;10.18;;;;;;;3.11;100.00;91816.44;5089138;28;20508;-71
2022/12/12 00:46:00;;;;;;;31.50;22.73;;;;;;;3.15;100.00;91825.97;5089227;28;20052;-71
2022/12/12 00:48:27;;;;;;;24.45;18.65;;;;;;;3.18;100.00;91824.81;5091698;28;20093;-71
2022/12/12 00:50:54;;;;;;;15.00;11.50;;;;;;;3.17;100.00;91826.56;5092828;28;20052;-71
2022/12/12 00:53:21;;;;;;;16.63;11.70;;;;;;;3.21;100.00;91832.03;5092590;28;20097;-71
2022/12/12 00:55:56;;;;;;;13.80;10.20;;;;;;;3.09;100.00;91838.69;5092863;28;20074;-71
2022/12/12 00:58:23;;;;;;;17.25;12.25;;;;;;;2.49;100.00;91825.84;5092672;28;20051;-71
2022/12/12 01:00:50;;;;;;;15.98;11.75;;;;;;;2.63;100.00;91834.22;5092610;28;20105;-71
2022/12/12 01:03:17;;;;;;;22.85;14.45;;;;;;;2.51;100.00;91828.94;5080088;28;20407;-71
2022/12/12 01:05:44;;;;;;;24.13;17.48;;;;;;;2.62;100.00;91826.81;5092643;28;20499;-71
2022/12/12 01:08:11;;;;;;;23.02;16.00;;;;;;;2.69;100.00;91826.81;5092391;28;20048;-71
2022/12/12 01:10:37;;;;;;;17.58;13.85;;;;;;;2.82;100.00;91829.34;5092950;28;20109;-71
2022/12/12 01:13:06;;;;;;;19.00;13.55;;;;;;;2.82;100.00;91828.56;5092631;28;20604;-71
2022/12/12 01:15:33;;;;;;;17.67;12.18;;;;;;;2.90;100.00;91830.91;5092440;28;20557;-71
2022/12/12 01:17:59;;;;;;;17.02;13.48;;;;;;;2.95;100.00;91828.56;5092513;28;20079;-71
2022/12/12 01:20:28;;;;;;;17.77;13.38;;;;;;;3.02;100.00;91841.25;5092300;28;20703;-71
2022/12/12 01:22:55;;;;;;;18.60;14.88;;;;;;;2.92;100.00;91831.50;5092320;28;20080;-71
2022/12/12 01:25:22;;;;;;;26.65;17.48;;;;;;;2.78;100.00;91833.25;5092339;28;20059;-71
2022/12/12 01:27:49;;;;;;;21.25;16.27;;;;;;;2.71;100.00;91840.06;5092513;28;20105;-71
2022/12/12 01:30:20;;;;;;;20.48;15.35;;;;;;;2.70;100.00;91841.06;5092016;28;20108;-71
2022/12/12 01:32:46;;;;;;;24.00;17.63;;;;;;;2.75;100.00;91839.50;5092342;28;20446;-71
2022/12/12 01:35:13;;;;;;;21.45;16.48;;;;;;;2.69;100.00;91826.81;5092431;28;20105;-71
2022/12/12 01:37:41;;;;;;;21.58;15.70;;;;;;;2.69;100.00;91832.69;5091594;28;20048;-71
2022/12/12 01:40:13;;;;;;;22.92;16.80;;;;;;;2.77;100.00;91831.69;5091511;28;20130;-71
2022/12/12 01:42:40;;;;;;;22.15;15.95;;;;;;;2.83;100.00;91836.00;5090862;28;20412;-71
2022/12/12 01:45:08;;;;;;;21.17;14.73;;;;;;;2.78;100.00;91839.09;5090991;28;20040;-71
2022/12/12 01:47:36;;;;;;;18.23;13.93;;;;;;;2.62;100.00;91844.56;5091407;28;20095;-70
2022/12/12 01:50:07;;;;;;;19.65;13.70;;;;;;;2.47;100.00;91842.22;5092100;28;20048;-70
2022/12/12 01:52:41;;;;;;;19.98;13.90;;;;;;;2.41;100.00;91851.38;5091938;28;20044;-70
2022/12/12 01:55:13;;;;;;;22.23;16.27;;;;;;;2.31;100.00;91848.44;5091858;28;20048;-70
2022/12/12 01:57:44;;;;;;;26.02;17.95;;;;;;;2.24;100.00;91854.28;5091297;28;20083;-71
2022/12/12 02:00:13;;;;;;;24.35;17.52;;;;;;;2.24;100.00;91856.03;5091504;28;20056;-71
2022/12/12 02:02:45;;;;;;;33.45;22.73;;;;;;;2.38;100.00;91866.97;5091439;28;20503;-71
2022/12/12 02:05:16;;;;;;;29.58;23.33;;;;;;;2.41;100.00;91871.66;5091724;28;20140;-71
2022/12/12 02:07:43;;;;;;;29.17;24.02;;;;;;;2.02;100.00;91866.31;5091243;28;20557;-71
2022/12/12 02:10:10;;;;;;;25.52;20.63;;;;;;;2.14;100.00;91869.84;5091617;28;20047;-71
2022/12/12 02:12:36;;;;;;;29.92;23.23;;;;;;;2.27;100.00;91870.84;5091771;28;20051;-71
2022/12/12 02:15:04;;;;;;;31.02;25.27;;;;;;;2.24;100.00;91874.56;5091136;28;20052;-71
2022/12/12 02:17:55;;;;;;;29.33;22.02;;;;;;;2.35;100.00;91869.88;5077411;28;20106;-71
2022/12/12 02:20:44;;;;;;;27.83;19.35;;;;;;;2.41;100.00;91864.06;5090953;28;20101;-71
2022/12/12 02:23:38;;;;;;;30.08;22.13;;;;;;;2.43;100.00;91858.78;5091219;28;20117;-70
2022/12/12 02:26:27;;;;;;;27.48;21.27;;;;;;;2.50;100.00;91873.03;5091404;28;20048;-71
2022/12/12 02:29:38;;;;;;;26.10;19.95;;;;;;;2.54;100.00;91869.13;5091019;28;20539;-71
2022/12/12 02:32:12;;;;;;;23.13;17.77;;;;;;;2.50;100.00;91870.50;5075350;28;20461;-71
2022/12/12 02:34:49;;;;;;;22.35;16.17;;;;;;;2.31;100.00;91871.25;5091211;28;20549;-70
2022/12/12 02:37:25;;;;;;;23.38;16.45;;;;;;;2.25;100.00;91877.84;5105223;28;20126;-70
2022/12/12 02:40:01;;;;;;;21.35;14.95;;;;;;;2.09;100.00;91873.94;5091066;28;20043;-70
2022/12/12 02:42:38;;;;;;;21.50;15.88;;;;;;;2.13;100.00;91885.25;5090517;28;20090;-70
2022/12/12 02:45:10;;;;;;;23.52;17.02;;;;;;;2.22;100.00;91884.09;5090965;28;20036;-71
2022/12/12 02:47:43;;;;;;;21.92;16.35;;;;;;;2.24;100.00;91863.63;5090766;28;20052;-70
2022/12/12 02:50:13;;;;;;;25.23;18.38;;;;;;;2.24;100.00;91873.75;5090908;28;20044;-70
2022/12/12 02:52:43;;;;;;;24.40;16.98;;;;;;;2.17;100.00;91862.84;5090268;28;20052;-70
2022/12/12 02:55:10;;;;;;;24.90;16.20;;;;;;;2.25;100.00;91870.25;5091177;28;20123;-70
2022/12/12 02:57:40;;;;;;;23.00;16.58;;;;;;;2.25;100.00;91870.25;5090612;28;20131;-70
2022/12/12 03:00:10;;;;;;;22.17;16.48;;;;;;;2.24;100.00;91868.69;5090874;28;20071;-70
2022/12/12 03:09:18;;;;;;;28.30;17.98;;;;;;;2.19;100.00;91879.41;5089959;28;20165;-71
2022/12/12 03:11:58;;;;;;;24.50;16.90;;;;;;;2.23;100.00;91872.22;5089712;28;20484;-71
2022/12/12 03:14:32;;;;;;;27.15;15.40;;;;;;;2.25;100.00;91871.03;5090301;28;20052;-70
2022/12/12 03:17:10;;;;;;;25.50;15.20;;;;;;;2.26;100.00;91871.81;5092004;28;20082;-70
2022/12/12 03:19:43;;;;;;;25.35;15.18;;;;;;;2.29;100.00;91876.50;5101029;28;20121;-70
2022/12/12 03:22:18;;;;;;;22.27;14.25;;;;;;;2.30;100.00;91884.91;5090041;28;20499;-70
2022/12/12 03:24:51;;;;;;;20.83;13.70;;;;;;;2.23;100.00;91872.22;5090155;28;20052;-70
2022/12/12 03:27:24;;;;;;;23.10;15.82;;;;;;;2.17;100.00;91870.44;5090286;28;20128;-70
2022/12/12 03:29:56;;;;;;;24.90;14.98;;;;;;;2.06;100.00;91856.56;5090036;28;20097;-70
2022/12/12 03:32:27;;;;;;;27.77;15.77;;;;;;;2.25;100.00;91891.31;5089852;28;20060;-70
2022/12/12 03:34:59;;;;;;;26.60;16.58;;;;;;;2.32;100.00;91885.47;5089832;28;20492;-70
2022/12/12 03:37:30;;;;;;;30.73;17.70;;;;;;;2.26;100.00;91882.75;5090288;28;20071;-70
2022/12/12 03:40:01;;;;;;;30.35;17.92;;;;;;;2.27;100.00;91881.75;5090039;28;20044;-70
2022/12/12 03:42:34;;;;;;;29.58;17.95;;;;;;;2.27;100.00;91886.81;5089737;28;20052;-70
2022/12/12 03:45:07;;;;;;;34.53;18.30;;;;;;;2.29;100.00;91883.31;5089810;28;20040;-71
2022/12/12 03:47:39;;;;;;;29.23;18.30;;;;;;;2.29;100.00;91891.72;5089699;28;20047;-71
2022/12/12 03:50:14;;;;;;;26.83;17.17;;;;;;;2.24;100.00;91889.75;5089983;28;20097;-71
2022/12/12 03:52:46;;;;;;;27.02;18.08;;;;;;;2.29;100.00;91898.53;5089492;28;20040;-71
2022/12/12 03:55:20;;;;;;;30.88;18.50;;;;;;;2.24;100.00;91901.63;5089612;28;20105;-71
2022/12/12 03:57:54;;;;;;;27.95;18.63;;;;;;;2.14;100.00;91905.31;5089651;28;20056;-71
2022/12/12 04:00:21;;;;;;;34.53;19.95;;;;;;;2.16;100.00;91910.19;5089268;28;20040;-71
2022/12/12 04:02:54;;;;;;;31.13;19.17;;;;;;;2.18;100.00;91905.69;5089525;28;20051;-71
2022/12/12 04:05:28;;;;;;;30.08;19.73;;;;;;;2.13;100.00;91898.69;5088966;28;20044;-72
2022/12/12 04:08:01;;;;;;;27.27;18.20;;;;;;;2.16;100.00;91897.53;5089797;28;20095;-72
2022/12/12 04:13:25;;;;;;;30.58;18.13;;;;;;;2.27;100.00;91911.41;5089061;28;20133;-71
2022/12/12 04:15:59;;;;;;;28.55;17.05;;;;;;;2.35;100.00;91926.41;5089600;28;20048;-71
2022/12/12 04:18:34;;;;;;;26.17;16.35;;;;;;;2.33;100.00;91920.78;5089754;28;20056;-71
2022/12/12 04:24:19;;;;;;;29.05;19.08;;;;;;;2.08;100.00;91917.97;5093582;28;20121;-71
2022/12/12 04:26:49;;;;;;;31.77;18.48;;;;;;;2.18;100.00;91938.63;5093201;28;20380;-71
2022/12/12 04:29:30;;;;;;;24.27;16.10;;;;;;;2.14;100.00;91929.88;5093298;28;20056;-71
2022/12/12 04:32:03;;;;;;;35.70;21.40;;;;;;;2.12;100.00;91929.25;5093703;28;20056;-71
2022/12/12 04:34:38;;;;;;;38.40;20.60;;;;;;;2.14;100.00;91922.28;5093721;28;20056;-71
2022/12/12 04:37:09;;;;;;;36.47;21.67;;;;;;;2.21;100.00;91923.06;5093758;28;20116;-71
2022/12/12 04:39:38;;;;;;;35.53;20.90;;;;;;;2.22;100.00;91914.50;5093265;28;20044;-71
2022/12/12 04:42:07;;;;;;;29.15;17.85;;;;;;;2.25;100.00;91921.72;5093528;28;20081;-71
2022/12/12 04:44:36;;;;;;;29.63;17.63;;;;;;;2.28;100.00;91910.44;5093205;28;20552;-71
2022/12/12 04:47:05;;;;;;;23.30;15.15;;;;;;;2.25;100.00;91919.19;5092955;28;20495;-71
2022/12/12 04:49:35;;;;;;;22.33;14.60;;;;;;;2.23;100.00;91922.88;5093024;28;20085;-71
2022/12/12 04:52:08;;;;;;;23.35;14.35;;;;;;;2.20;100.00;91928.31;5093143;28;20093;-71
2022/12/12 04:54:41;;;;;;;22.95;14.13;;;;;;;2.17;100.00;91937.06;5093024;28;20561;-71
2022/12/12 04:57:11;;;;;;;22.17;14.30;;;;;;;2.00;100.00;91917.13;5093161;28;20056;-71
2022/12/12 04:59:39;;;;;;;30.67;16.70;;;;;;;2.12;100.00;91927.53;5092813;28;20052;-70
2022/12/12 05:02:13;;;;;;;38.38;21.50;;;;;;;2.10;100.00;91937.06;5093032;28;20161;-70
2022/12/12 05:04:47;;;;;;;32.20;18.63;;;;;;;2.08;100.00;91943.28;5092541;28;20109;-70
2022/12/12 05:07:21;;;;;;;32.70;18.65;;;;;;;2.00;100.00;91934.09;5092854;28;20135;-70
2022/12/12 05:09:49;;;;;;;30.77;18.40;;;;;;;2.07;100.00;91941.72;5092970;28;20127;-71
2022/12/12 05:12:16;;;;;;;30.35;18.65;;;;;;;2.07;100.00;91939.97;5092832;28;20052;-70
2022/12/12 05:14:43;;;;;;;34.55;20.60;;;;;;;2.05;100.00;91936.84;5092656;28;20051;-71
2022/12/12 05:17:17;;;;;;;31.35;20.30;;;;;;;2.09;100.00;91938.03;5092702;28;20430;-71
2022/12/12 05:19:43;;;;;;;33.55;20.90;;;;;;;2.11;100.00;91941.16;5092301;28;20048;-71
2022/12/12 05:22:10;;;;;;;30.02;18.55;;;;;;;2.15;100.00;91939.03;5092273;28;20488;-71
2022/12/12 05:24:38;;;;;;;30.20;19.33;;;;;;;2.11;100.00;91930.25;5092763;28;20052;-71
2022/12/12 05:27:05;;;;;;;27.73;18.13;;;;;;;2.15;100.00;91939.03;5092525;28;20207;-71
2022/12/12 05:29:32;;;;;;;27.75;18.15;;;;;;;2.13;100.00;91941.75;5092605;28;20134;-71
2022/12/12 05:31:59;;;;;;;35.13;21.42;;;;;;;2.16;100.00;91934.75;5092157;28;20427;-71
2022/12/12 05:34:25;;;;;;;37.33;23.85;;;;;;;2.05;100.00;91939.38;5091572;28;20059;-71
2022/12/12 05:36:52;;;;;;;41.08;25.20;;;;;;;2.03;100.00;91940.53;5092395;28;20056;-71
2022/12/12 05:39:19;;;;;;;49.97;28.02;;;;;;;1.98;100.00;91944.41;5091825;28;20164;-71
2022/12/12 05:41:47;;;;;;;38.78;23.50;;;;;;;1.99;100.00;91945.22;5092354;28;20390;-71
2022/12/12 05:44:14;;;;;;;38.95;24.60;;;;;;;2.04;100.00;91949.69;5091832;28;20584;-70
2022/12/12 05:46:40;;;;;;;40.80;26.65;;;;;;;2.10;100.00;91941.34;5091480;28;20051;-71
2022/12/12 05:49:07;;;;;;;39.58;25.10;;;;;;;2.11;100.00;91946.22;5092035;28;20140;-71
2022/12/12 05:51:34;;;;;;;39.55;24.00;;;;;;;2.18;100.00;91942.94;5091817;28;20106;-70
2022/12/12 05:54:00;;;;;;;38.38;25.88;;;;;;;2.22;100.00;91951.72;5091968;28;20040;-70
2022/12/12 05:56:27;;;;;;;41.80;26.65;;;;;;;2.20;100.00;91949.38;5091660;28;20055;-70
2022/12/12 05:58:55;;;;;;;44.17;28.30;;;;;;;2.27;100.00;91955.25;5091606;28;20040;-70
2022/12/12 06:01:22;;;;;;;46.50;31.27;;;;;;;2.22;100.00;91960.09;5091549;28;20052;-70
2022/12/12 06:03:48;;;;;;;49.75;33.15;;;;;;;2.08;100.00;91959.25;5091554;28;20568;-71
2022/12/12 06:06:15;;;;;;;46.92;29.60;;;;;;;2.09;100.00;91962.59;5091842;28;20048;-70
2022/12/12 06:08:42;;;;;;;44.65;29.35;;;;;;;2.09;100.00;91960.81;5091248;28;20560;-70
2022/12/12 06:11:09;;;;;;;51.08;30.00;;;;;;;2.14;100.00;91970.41;5091865;28;20109;-70
2022/12/12 06:13:37;;;;;;;53.95;34.10;;;;;;;2.14;100.00;91983.06;5091578;28;20207;-71
2022/12/12 06:16:08;;;;;;;41.88;26.52;;;;;;;2.18;100.00;91975.88;5091754;28;20047;-70
2022/12/12 06:18:34;;;;;;;42.65;27.45;;;;;;;2.14;100.00;91976.22;5091537;28;20109;-70
2022/12/12 06:21:03;;;;;;;41.40;28.85;;;;;;;2.21;100.00;91978.81;5091070;28;20101;-70
2022/12/12 06:23:30;;;;;;;46.55;28.88;;;;;;;2.21;100.00;91988.94;5090640;28;20044;-71
2022/12/12 06:25:56;;;;;;;47.05;28.60;;;;;;;2.04;100.00;91985.16;5089920;28;20101;-70
2022/12/12 06:28:23;;;;;;;45.45;25.50;;;;;;;2.04;100.00;91988.47;5089629;28;20455;-70
2022/12/12 06:30:50;;;;;;;41.95;25.50;;;;;;;2.18;100.00;91993.59;5091219;28;20109;-70
2022/12/12 06:33:18;;;;;;;48.20;30.17;;;;;;;2.26;100.00;92006.09;5091250;28;20048;-70
2022/12/12 06:35:45;;;;;;;57.72;32.50;;;;;;;2.06;100.00;92006.81;5091095;28;20052;-70
2022/12/12 06:38:12;;;;;;;54.67;33.50;;;;;;;1.93;100.00;92012.56;5091187;28;20079;-70
2022/12/12 06:40:40;;;;;;;48.67;29.77;;;;;;;2.04;100.00;92013.78;5091149;28;20078;-70
2022/12/12 06:43:06;;;;;;;53.55;29.20;;;;;;;2.03;100.00;92012.22;5076843;28;20127;-70
2022/12/12 06:45:33;;;;;;;48.40;29.50;;;;;;;2.16;100.00;92011.53;5091171;28;20060;-70
2022/12/12 06:48:00;;;;;;;45.45;29.20;;;;;;;2.18;100.00;92012.09;5090160;28;20465;-70
2022/12/12 06:50:28;;;;;;;50.35;34.58;;;;;;;2.26;100.00;92022.09;5090992;28;20048;-70
2022/12/12 06:52:54;;;;;;;50.35;31.83;;;;;;;2.33;100.00;92029.75;5090754;28;20066;-70
2022/12/12 06:55:21;;;;;;;49.58;30.75;;;;;;;2.37;100.00;92038.50;5090258;28;20048;-70
2022/12/12 06:57:48;;;;;;;50.63;30.88;;;;;;;2.36;100.00;92033.66;5090687;28;20462;-70
2022/12/12 07:00:16;;;;;;;64.50;35.72;;;;;;;2.46;100.00;92043.44;5089764;28;20048;-70
2022/12/12 07:02:42;;;;;;;52.42;31.65;;;;;;;2.46;100.00;92029.00;5070193;28;20048;-71
2022/12/12 07:05:09;;;;;;;53.78;33.95;;;;;;;2.44;100.00;92037.78;5069841;28;20068;-72
2022/12/12 07:07:37;;;;;;;57.15;32.50;;;;;;;2.49;100.00;92043.81;5068948;28;20040;-72
2022/12/12 07:10:05;;;;;;;51.45;30.42;;;;;;;2.37;100.00;92048.66;5070027;28;20048;-71
2022/12/12 07:12:32;;;;;;;55.75;29.83;;;;;;;2.22;100.00;92056.38;5073141;28;20487;-72
2022/12/12 07:14:59;;;;;;;45.63;28.75;;;;;;;2.26;100.00;92044.91;5070876;28;20366;-71
2022/12/12 07:17:25;;;;;;;48.70;27.98;;;;;;;2.23;100.00;92045.25;5069615;28;20093;-71
2022/12/12 07:19:54;;;;;;;54.45;29.70;;;;;;;2.23;100.00;92044.50;5069498;28;20040;-71
2022/12/12 07:22:21;;;;;;;47.58;28.67;;;;;;;2.36;100.00;92051.38;5069145;28;20102;-71
2022/12/12 07:24:51;;;;;;;53.08;30.02;;;;;;;2.34;100.00;92054.09;5069389;28;20072;-71
2022/12/12 07:27:18;;;;;;;48.08;27.75;;;;;;;2.32;100.00;92057.78;5069083;28;20052;-71
2022/12/12 07:29:45;;;;;;;47.22;27.98;;;;;;;2.35;100.00;92067.53;5073741;28;20047;-71
2022/12/12 07:32:12;;;;;;;49.95;30.05;;;;;;;2.47;100.00;92075.41;5100485;28;20130;-72
2022/12/12 07:34:39;;;;;;;56.55;31.05;;;;;;;2.37;100.00;92074.00;5090591;28;20055;-71
2022/12/12 07:37:06;;;;;;;60.08;31.13;;;;;;;2.31;100.00;92077.28;5089258;28;20044;-72
2022/12/12 07:39:33;;;;;;;58.70;34.88;;;;;;;2.26;100.00;92082.91;5089931;28;20044;-71
2022/12/12 07:42:01;;;;;;;48.40;31.98;;;;;;;2.31;100.00;92079.03;5089415;28;20492;-71
2022/12/12 07:44:28;;;;;;;41.13;27.85;;;;;;;2.36;100.00;92074.19;5089980;28;20051;-71
2022/12/12 07:46:57;;;;;;;53.38;30.98;;;;;;;2.47;100.00;92085.53;5077432;28;20122;-71
2022/12/12 07:49:24;;;;;;;53.85;30.48;;;;;;;2.37;100.00;92085.91;5069307;28;20126;-71
2022/12/12 07:51:51;;;;;;;39.35;26.27;;;;;;;2.31;100.00;92091.72;5081597;28;20093;-72
2022/12/12 07:54:18;;;;;;;43.97;28.10;;;;;;;2.34;100.00;92096.38;5089330;28;20056;-71
2022/12/12 07:56:44;;;;;;;59.45;31.63;;;;;;;2.31;100.00;92086.66;5080520;28;20048;-72
2022/12/12 07:59:12;;;;;;;48.72;28.48;;;;;;;2.08;100.00;92090.97;5068976;28;20512;-72
2022/12/12 08:01:39;;;;;;;54.60;29.83;;;;;;;2.20;100.00;92091.25;5083997;28;20444;-71
2022/12/12 08:04:06;;;;;;;58.38;31.52;;;;;;;2.40;100.00;92098.97;5089839;28;20051;-71
2022/12/12 08:06:33;;;;;;;51.45;30.23;;;;;;;2.40;100.00;92080.44;5089588;28;20097;-71
2022/12/12 08:08:59;;;;;;;56.90;31.30;;;;;;;2.82;100.00;92102.47;5089616;28;20048;-71
2022/12/12 08:11:26;;;;;;;46.47;27.60;;;;;;;2.98;100.00;92106.41;5089466;28;20052;-72
2022/12/12 08:13:53;;;;;;;44.10;27.60;;;;;;;3.02;100.00;92098.22;5089406;28;20044;-72
2022/12/12 08:16:23;;;;;;;47.10;28.13;;;;;;;3.28;100.00;92111.97;5089506;28;20044;-71
2022/12/12 08:18:52;;;;;;;46.35;28.30;;;;;;;3.45;100.00;92106.53;5089480;28;20048;-72
2022/12/12 08:21:19;;;;;;;48.30;28.30;;;;;;;3.59;100.00;92108.13;5089505;28;20048;-71
2022/12/12 08:23:46;;;;;;;42.22;25.80;;;;;;;3.73;100.00;92115.75;5089448;28;20044;-72
2022/12/12 08:26:15;;;;;;;48.03;26.75;;;;;;;3.45;100.00;92098.91;5089577;28;20133;-72
2022/12/12 08:28:44;;;;;;;43.75;26.50;;;;;;;3.71;100.00;92123.53;5088919;28;20048;-71
2022/12/12 08:31:12;;;;;;;42.88;25.92;;;;;;;3.74;100.00;92127.47;5089408;28;20048;-71
2022/12/12 08:33:41;;;;;;;43.97;26.58;;;;;;;3.92;100.00;92121.00;5089067;28;20156;-71
2022/12/12 08:36:13;;;;;;;47.60;29.55;;;;;;;3.93;100.00;92128.44;5089185;28;20553;-72
2022/12/12 08:38:40;;;;;;;49.88;30.42;;;;;;;4.11;100.00;92116.91;5089376;28;20083;-72
2022/12/12 08:41:06;;;;;;;54.58;32.50;;;;;;;4.04;100.00;92114.38;5088960;28;20090;-72
2022/12/12 08:43:33;;;;;;;59.50;36.55;;;;;;;4.13;100.00;92118.28;5089065;28;20121;-72
2022/12/12 08:46:00;;;;;;;61.85;36.95;;;;;;;3.98;100.00;92108.31;5088931;28;20519;-72
2022/12/12 08:48:27;;;;;;;55.15;33.58;;;;;;;3.67;100.00;92109.69;5088920;28;20555;-71
2022/12/12 08:50:55;;;;;;;63.95;40.45;;;;;;;3.57;100.00;92114.38;5088625;28;20577;-72
2022/12/12 08:53:22;;;;;;;67.40;38.55;;;;;;;3.58;100.00;92106.56;5088964;28;20048;-72
2022/12/12 08:55:49;;;;;;;62.72;33.65;;;;;;;3.57;100.00;92116.91;5089181;28;20080;-71
2022/12/12 08:58:16;;;;;;;54.28;32.30;;;;;;;3.77;100.00;92111.03;5089115;28;20502;-71
2022/12/12 09:00:43;;;;;;;66.47;37.65;;;;;;;3.79;100.00;92104.03;5083763;28;20040;-72
2022/12/12 09:03:10;;;;;;;63.92;35.85;;;;;;;3.88;100.00;92098.56;5068529;28;20106;-72
2022/12/12 09:05:36;;;;;;;59.63;33.95;;;;;;;3.97;100.00;92122.00;5068105;28;20052;-72
2022/12/12 09:08:04;;;;;;;53.85;30.95;;;;;;;3.90;100.00;92128.84;5071115;28;20078;-72
2022/12/12 09:10:32;;;;;;;84.05;43.45;;;;;;;3.46;100.00;92125.84;5070100;28;20045;-72
2022/12/12 09:12:58;;;;;;;65.90;38.35;;;;;;;3.55;100.00;92126.47;5070557;28;20048;-72
2022/12/12 09:15:25;;;;;;;64.93;37.25;;;;;;;3.10;100.00;92119.34;5072080;28;20086;-72
2022/12/12 09:17:52;;;;;;;67.40;41.35;;;;;;;2.87;100.00;92120.44;5072268;28;20125;-71
2022/12/12 09:20:19;;;;;;;55.92;34.72;;;;;;;2.86;100.00;92124.72;5078086;28;20044;-71
2022/12/12 09:22:45;;;;;;;61.13;37.50;;;;;;;3.07;100.00;92111.13;5092816;28;20056;-71
2022/12/12 09:25:13;;;;;;;57.97;36.50;;;;;;;3.09;100.00;92112.72;5092394;28;20044;-72
2022/12/12 09:27:40;;;;;;;47.30;31.67;;;;;;;2.90;100.00;92114.97;5092607;28;20130;-72
2022/12/12 09:30:08;;;;;;;45.22;28.13;;;;;;;2.90;100.00;92112.44;5092471;28;20052;-72
2022/12/12 09:32:34;;;;;;;35.22;22.15;;;;;;;2.98;100.00;92108.97;5092196;28;20512;-72
2022/12/12 09:35:01;;;;;;;21.00;15.27;;;;;;;2.97;100.00;92104.84;5092151;28;20048;-72
2022/12/12 09:37:28;;;;;;;24.88;15.90;;;;;;;3.20;100.00;92099.47;5092200;28;20048;-72
2022/12/12 09:39:55;;;;;;;27.17;18.02;;;;;;;3.51;100.00;92095.59;5092145;28;20052;-71
2022/12/12 09:42:25;;;;;;;28.77;18.58;;;;;;;3.74;100.00;92096.97;5092015;28;20144;-72
2022/12/12 09:44:57;;;;;;;29.15;19.02;;;;;;;3.90;100.00;92105.97;5091999;28;20500;-71
2022/12/12 09:47:34;;;;;;;32.65;21.65;;;;;;;3.97;100.00;92104.22;5092056;28;20102;-72
2022/12/12 09:50:06;;;;;;;28.95;19.33;;;;;;;4.14;100.00;92117.31;5039229;28;20049;-72
2022/12/12 09:52:35;;;;;;;28.77;19.13;;;;;;;4.31;100.00;92106.72;5031050;28;20132;-72
2022/12/12 09:55:15;;;;;;;29.00;18.08;;;;;;;4.31;100.00;92088.16;5033626;28;20049;-71
2022/12/12 09:57:51;;;;;;;40.60;23.75;;;;;;;4.58;100.00;92113.50;5044146;28;20053;-72
2022/12/12 10:00:19;;;;;;;38.00;22.10;;;;;;;4.71;100.00;92116.00;5051380;28;20045;-72
2022/12/12 10:03:03;;;;;;;37.65;22.13;;;;;;;4.66;100.00;92083.56;5051856;28;20044;-72
2022/12/12 10:05:37;;;;;;;37.17;23.30;;;;;;;4.95;100.00;92118.84;5051863;28;20106;-72
2022/12/12 10:08:13;;;;;;;82.53;40.13;;;;;;;5.05;100.00;92108.25;5050703;28;20095;-72
2022/12/12 10:10:41;;;;;;;;;;;;;;;5.12;100.00;92098.03;5051798;28;20464;-72
2022/12/12 10:13:16;;;;;;;55.70;32.40;;;;;;;5.14;100.00;92096.84;5051697;28;20266;-72
2022/12/12 10:15:47;;;;;;;55.45;33.42;;;;;;;5.26;100.00;92086.00;5051488;28;20052;-72
2022/12/12 10:18:17;;;;;;;55.35;30.67;;;;;;;5.35;100.00;92084.78;5051333;28;20099;-71
2022/12/12 10:20:49;;;;;;;60.80;34.90;;;;;;;5.42;100.00;92085.53;5050725;28;20099;-72
2022/12/12 10:23:23;;;;;;;58.40;33.05;;;;;;;5.49;100.00;92077.84;5050935;28;20056;-71
2022/12/12 10:25:55;;;;;;;76.00;39.63;;;;;;;5.60;100.00;92067.00;5051504;28;20485;-71
2022/12/12 10:28:26;;;;;;;57.63;33.20;;;;;;;5.69;100.00;92062.41;5050978;28;20535;-71
2022/12/12 10:31:09;;;;;;;52.03;31.90;;;;;;;5.69;100.00;92031.84;5051003;28;20630;-71
2022/12/12 10:33:54;;;;;;;51.45;29.20;;;;;;;5.88;100.00;92029.34;5051203;28;20381;-71
2022/12/12 10:36:33;;;;;;;55.92;29.02;;;;;;;5.97;100.00;92024.75;5050734;28;20052;-71
2022/12/12 10:39:12;;;;;;;92.95;41.60;;;;;;;6.12;100.00;92032.88;5050502;28;20053;-71
2022/12/12 10:41:46;;;;;;;65.43;36.42;;;;;;;6.27;100.00;92041.94;5050666;28;20132;-72
2022/12/12 10:44:28;;;;;;;55.85;33.22;;;;;;;6.41;100.00;92038.28;5050549;28;20052;-71
2022/12/12 10:47:03;;;;;;;57.05;32.35;;;;;;;6.48;100.00;92038.19;5050887;28;20076;-72
2022/12/12 10:49:31;;;;;;;52.97;30.42;;;;;;;6.46;100.00;92036.84;5084089;28;20059;-71
2022/12/12 10:52:00;;;;;;;51.13;30.48;;;;;;;6.62;100.00;92043.94;5091111;28;20048;-71
2022/12/12 10:54:29;;;;;;;51.63;31.20;;;;;;;6.74;100.00;92049.09;5090766;28;20047;-70
2022/12/12 10:57:10;;;;;;;58.08;35.10;;;;;;;6.68;100.00;92048.16;5089206;28;20040;-70
2022/12/12 11:00:02;;;;;;;54.60;34.97;;;;;;;6.52;100.00;92034.22;5072110;28;21066;-72
2022/12/12 11:02:36;;;;;;;62.33;35.53;;;;;;;6.58;100.00;92036.91;5076552;28;20052;-72
2022/12/12 11:05:18;;;;;;;66.55;39.28;;;;;;;6.49;100.00;92036.44;5076553;28;20123;-71
2022/12/12 11:07:47;;;;;;;69.22;38.75;;;;;;;6.36;100.00;92047.56;5090568;28;20514;-71
2022/12/12 11:10:26;;;;;;;62.60;34.75;;;;;;;6.29;100.00;92042.50;5091063;28;20094;-71
2022/12/12 11:12:59;;;;;;;46.95;30.38;;;;;;;6.38;100.00;92041.25;5091234;28;20051;-71
2022/12/12 11:15:51;;;;;;;44.17;28.35;;;;;;;6.43;100.00;92034.75;5091341;28;20048;-71
2022/12/12 11:18:21;;;;;;;45.30;28.73;;;;;;;6.51;100.00;92034.44;5088546;28;20070;-71
2022/12/12 11:20:51;;;;;;;44.05;27.48;;;;;;;6.53;100.00;92024.81;5089754;28;20054;-71
2022/12/12 11:23:22;;;;;;;40.25;24.42;;;;;;;6.67;100.00;92036.41;5089824;28;20113;-71
2022/12/12 11:25:56;;;;;;;47.33;26.75;;;;;;;6.76;100.00;92031.78;5089930;28;20055;-71
2022/12/12 11:28:26;;;;;;;36.17;23.17;;;;;;;6.76;100.00;92028.47;5086961;28;20044;-71
2022/12/12 11:30:56;;;;;;;39.78;24.33;;;;;;;6.72;100.00;92025.56;5088809;28;20048;-71
2022/12/12 11:33:31;;;;;;;38.22;24.55;;;;;;;6.81;100.00;92024.25;5089022;28;20492;-71
2022/12/12 11:35:58;;;;;;;34.60;21.33;;;;;;;6.81;100.00;92024.25;5082618;28;20151;-71
2022/12/12 11:38:30;;;;;;;34.00;21.10;;;;;;;6.79;100.00;92018.59;5079531;28;20056;-71
2022/12/12 11:40:59;;;;;;;33.45;21.40;;;;;;;6.73;100.00;92016.91;5089160;28;20097;-71
2022/12/12 11:43:28;;;;;;;31.58;20.98;;;;;;;6.79;100.00;92012.72;5089809;28;20048;-71